sensor_id;sensor_type;location;lat;lon;timestamp;P1;durP1;ratioP1;P2;durP2;ratioP2
7001;SDS011;3541;53.230;10.518;2022-09-13T00:01:33;3.20;;;2.90;;
7001;SDS011;3541;53.230;10.518;2022-09-13T00:04:00;3.25;;;2.65;;
7001;SDS011;3541;53.230;10.518;2022-09-13T00:06:28;3.58;;;2.75;;
7001;SDS011;3541;53.230;10.518;2022-09-13T00:08:55;3.33;;;2.88;;
7001;SDS011;3541;53.230;10.518;2022-09-13T00:11:24;3.20;;;2.88;;
7001;SDS011;3541;53.230;10.518;2022-09-13T00:13:52;3.60;;;2.75;;
7001;SDS011;3541;53.230;10.518;2022-09-13T00:16:19;5.10;;;3.03;;
7001;SDS011;3541;53.230;10.518;2022-09-13T00:18:48;4.28;;;3.20;;
7001;SDS011;3541;53.230;10.518;2022-09-13T00:21:16;3.03;;;2.72;;
7001;SDS011;3541;53.230;10.518;2022-09-13T00:23:43;5.97;;;2.80;;
7001;SDS011;3541;53.230;10.518;2022-09-13T00:26:12;6.07;;;3.10;;
7001;SDS011;3541;53.230;10.518;2022-09-13T00:28:42;4.38;;;2.80;;
7001;SDS011;3541;53.230;10.518;2022-09-13T00:31:09;5.47;;;3.03;;
7001;SDS011;3541;53.230;10.518;2022-09-13T00:33:36;4.10;;;3.10;;
7001;SDS011;3541;53.230;10.518;2022-09-13T00:36:03;3.90;;;2.70;;
7001;SDS011;3541;53.230;10.518;2022-09-13T00:38:31;3.30;;;3.00;;
7001;SDS011;3541;53.230;10.518;2022-09-13T00:40:57;3.00;;;2.78;;
7001;SDS011;3541;53.230;10.518;2022-09-13T00:43:39;5.13;;;3.03;;
7001;SDS011;3541;53.230;10.518;2022-09-13T00:46:10;3.88;;;2.83;;
7001;SDS011;3541;53.230;10.518;2022-09-13T00:48:38;3.38;;;2.95;;
7001;SDS011;3541;53.230;10.518;2022-09-13T00:51:06;4.35;;;3.00;;
7001;SDS011;3541;53.230;10.518;2022-09-13T00:53:35;4.28;;;3.33;;
7001;SDS011;3541;53.230;10.518;2022-09-13T00:56:06;3.50;;;3.20;;
7001;SDS011;3541;53.230;10.518;2022-09-13T00:58:38;3.80;;;2.97;;
7001;SDS011;3541;53.230;10.518;2022-09-13T01:01:10;5.85;;;2.83;;
7001;SDS011;3541;53.230;10.518;2022-09-13T01:03:41;3.70;;;2.90;;
7001;SDS011;3541;53.230;10.518;2022-09-13T01:06:10;3.75;;;2.88;;
7001;SDS011;3541;53.230;10.518;2022-09-13T01:08:40;3.13;;;2.80;;
7001;SDS011;3541;53.230;10.518;2022-09-13T01:11:15;4.47;;;2.92;;
7001;SDS011;3541;53.230;10.518;2022-09-13T01:13:50;3.88;;;3.28;;
7001;SDS011;3541;53.230;10.518;2022-09-13T01:16:17;3.47;;;3.15;;
7001;SDS011;3541;53.230;10.518;2022-09-13T01:18:44;3.63;;;3.00;;
7001;SDS011;3541;53.230;10.518;2022-09-13T01:21:20;3.85;;;3.03;;
7001;SDS011;3541;53.230;10.518;2022-09-13T01:27:27;4.43;;;3.10;;
7001;SDS011;3541;53.230;10.518;2022-09-13T01:30:11;4.65;;;3.15;;
7001;SDS011;3541;53.230;10.518;2022-09-13T01:35:38;4.95;;;3.33;;
7001;SDS011;3541;53.230;10.518;2022-09-13T01:38:15;3.75;;;3.30;;
7001;SDS011;3541;53.230;10.518;2022-09-13T01:40:55;4.78;;;3.00;;
7001;SDS011;3541;53.230;10.518;2022-09-13T01:43:35;4.38;;;3.25;;
7001;SDS011;3541;53.230;10.518;2022-09-13T01:46:12;4.63;;;3.35;;
7001;SDS011;3541;53.230;10.518;2022-09-13T01:48:48;4.65;;;3.38;;
7001;SDS011;3541;53.230;10.518;2022-09-13T01:51:20;6.47;;;3.42;;
7001;SDS011;3541;53.230;10.518;2022-09-13T01:53:55;4.78;;;3.38;;
7001;SDS011;3541;53.230;10.518;2022-09-13T01:56:32;4.43;;;3.60;;
7001;SDS011;3541;53.230;10.518;2022-09-13T01:59:05;5.35;;;3.40;;
7001;SDS011;3541;53.230;10.518;2022-09-13T02:01:41;5.18;;;3.25;;
7001;SDS011;3541;53.230;10.518;2022-09-13T02:04:14;3.85;;;2.90;;
7001;SDS011;3541;53.230;10.518;2022-09-13T02:06:45;3.60;;;3.00;;
7001;SDS011;3541;53.230;10.518;2022-09-13T02:09:19;5.90;;;3.90;;
7001;SDS011;3541;53.230;10.518;2022-09-13T02:11:50;4.78;;;3.45;;
7001;SDS011;3541;53.230;10.518;2022-09-13T02:14:21;4.07;;;3.58;;
7001;SDS011;3541;53.230;10.518;2022-09-13T02:16:55;3.45;;;3.15;;
7001;SDS011;3541;53.230;10.518;2022-09-13T02:19:27;8.00;;;3.75;;
7001;SDS011;3541;53.230;10.518;2022-09-13T02:22:00;4.63;;;3.33;;
7001;SDS011;3541;53.230;10.518;2022-09-13T02:24:30;5.20;;;3.47;;
7001;SDS011;3541;53.230;10.518;2022-09-13T02:27:00;4.40;;;3.50;;
7001;SDS011;3541;53.230;10.518;2022-09-13T02:29:32;6.22;;;3.70;;
7001;SDS011;3541;53.230;10.518;2022-09-13T02:32:04;5.60;;;4.00;;
7001;SDS011;3541;53.230;10.518;2022-09-13T02:34:37;4.50;;;4.10;;
7001;SDS011;3541;53.230;10.518;2022-09-13T02:37:05;4.70;;;4.20;;
7001;SDS011;3541;53.230;10.518;2022-09-13T02:39:34;4.75;;;3.72;;
7001;SDS011;3541;53.230;10.518;2022-09-13T02:42:07;6.65;;;4.28;;
7001;SDS011;3541;53.230;10.518;2022-09-13T02:44:40;4.95;;;4.38;;
7001;SDS011;3541;53.230;10.518;2022-09-13T02:47:13;4.10;;;3.70;;
7001;SDS011;3541;53.230;10.518;2022-09-13T02:49:54;5.38;;;4.40;;
7001;SDS011;3541;53.230;10.518;2022-09-13T02:52:31;5.60;;;4.20;;
7001;SDS011;3541;53.230;10.518;2022-09-13T02:55:07;7.35;;;4.50;;
7001;SDS011;3541;53.230;10.518;2022-09-13T02:57:41;5.90;;;4.55;;
7001;SDS011;3541;53.230;10.518;2022-09-13T03:00:18;5.63;;;4.13;;
7001;SDS011;3541;53.230;10.518;2022-09-13T03:02:47;4.93;;;4.03;;
7001;SDS011;3541;53.230;10.518;2022-09-13T03:05:16;5.07;;;4.10;;
7001;SDS011;3541;53.230;10.518;2022-09-13T03:07:43;4.88;;;4.22;;
7001;SDS011;3541;53.230;10.518;2022-09-13T03:10:10;5.85;;;4.65;;
7001;SDS011;3541;53.230;10.518;2022-09-13T03:12:46;6.93;;;5.00;;
7001;SDS011;3541;53.230;10.518;2022-09-13T03:15:38;5.82;;;4.85;;
7001;SDS011;3541;53.230;10.518;2022-09-13T03:18:18;7.03;;;5.13;;
7001;SDS011;3541;53.230;10.518;2022-09-13T03:21:07;5.05;;;4.32;;
7001;SDS011;3541;53.230;10.518;2022-09-13T03:23:47;8.15;;;4.80;;
7001;SDS011;3541;53.230;10.518;2022-09-13T03:26:28;5.78;;;4.90;;
7001;SDS011;3541;53.230;10.518;2022-09-13T03:29:08;6.38;;;4.95;;
7001;SDS011;3541;53.230;10.518;2022-09-13T03:31:49;5.47;;;4.72;;
7001;SDS011;3541;53.230;10.518;2022-09-13T03:34:29;6.53;;;4.82;;
7001;SDS011;3541;53.230;10.518;2022-09-13T03:37:01;7.45;;;5.97;;
7001;SDS011;3541;53.230;10.518;2022-09-13T03:39:34;6.88;;;5.30;;
7001;SDS011;3541;53.230;10.518;2022-09-13T03:42:10;6.50;;;5.32;;
7001;SDS011;3541;53.230;10.518;2022-09-13T03:44:40;6.63;;;5.03;;
7001;SDS011;3541;53.230;10.518;2022-09-13T03:47:10;7.25;;;5.05;;
7001;SDS011;3541;53.230;10.518;2022-09-13T03:49:40;6.18;;;5.20;;
7001;SDS011;3541;53.230;10.518;2022-09-13T03:52:08;6.70;;;5.57;;
7001;SDS011;3541;53.230;10.518;2022-09-13T03:54:36;6.72;;;5.90;;
7001;SDS011;3541;53.230;10.518;2022-09-13T03:57:07;6.38;;;5.38;;
7001;SDS011;3541;53.230;10.518;2022-09-13T03:59:36;8.02;;;5.65;;
7001;SDS011;3541;53.230;10.518;2022-09-13T04:02:05;7.13;;;5.32;;
7001;SDS011;3541;53.230;10.518;2022-09-13T04:04:36;6.53;;;5.07;;
7001;SDS011;3541;53.230;10.518;2022-09-13T04:07:04;7.65;;;5.88;;
7001;SDS011;3541;53.230;10.518;2022-09-13T04:09:31;6.10;;;5.30;;
7001;SDS011;3541;53.230;10.518;2022-09-13T04:11:57;7.05;;;5.45;;
7001;SDS011;3541;53.230;10.518;2022-09-13T04:14:24;7.10;;;5.68;;
7001;SDS011;3541;53.230;10.518;2022-09-13T04:16:52;7.65;;;5.85;;
7001;SDS011;3541;53.230;10.518;2022-09-13T04:19:19;6.25;;;5.30;;
7001;SDS011;3541;53.230;10.518;2022-09-13T04:21:46;7.80;;;6.03;;
7001;SDS011;3541;53.230;10.518;2022-09-13T04:24:15;6.47;;;5.80;;
7001;SDS011;3541;53.230;10.518;2022-09-13T04:26:43;7.25;;;5.82;;
7001;SDS011;3541;53.230;10.518;2022-09-13T04:29:13;8.15;;;5.85;;
7001;SDS011;3541;53.230;10.518;2022-09-13T04:31:40;6.57;;;5.82;;
7001;SDS011;3541;53.230;10.518;2022-09-13T04:34:06;7.53;;;5.53;;
7001;SDS011;3541;53.230;10.518;2022-09-13T04:36:33;8.60;;;5.90;;
7001;SDS011;3541;53.230;10.518;2022-09-13T04:38:59;7.78;;;5.80;;
7001;SDS011;3541;53.230;10.518;2022-09-13T04:41:28;6.60;;;5.80;;
7001;SDS011;3541;53.230;10.518;2022-09-13T04:43:56;11.27;;;6.15;;
7001;SDS011;3541;53.230;10.518;2022-09-13T04:46:22;7.10;;;6.07;;
7001;SDS011;3541;53.230;10.518;2022-09-13T04:48:49;6.72;;;5.93;;
7001;SDS011;3541;53.230;10.518;2022-09-13T04:51:16;8.23;;;6.03;;
7001;SDS011;3541;53.230;10.518;2022-09-13T04:53:44;10.27;;;6.22;;
7001;SDS011;3541;53.230;10.518;2022-09-13T04:56:11;9.95;;;6.95;;
7001;SDS011;3541;53.230;10.518;2022-09-13T04:58:40;8.27;;;6.60;;
7001;SDS011;3541;53.230;10.518;2022-09-13T05:01:08;7.82;;;6.15;;
7001;SDS011;3541;53.230;10.518;2022-09-13T05:03:35;8.68;;;6.25;;
7001;SDS011;3541;53.230;10.518;2022-09-13T05:06:03;7.60;;;6.28;;
7001;SDS011;3541;53.230;10.518;2022-09-13T05:08:30;9.00;;;6.32;;
7001;SDS011;3541;53.230;10.518;2022-09-13T05:10:57;9.52;;;6.80;;
7001;SDS011;3541;53.230;10.518;2022-09-13T05:13:24;7.72;;;6.22;;
7001;SDS011;3541;53.230;10.518;2022-09-13T05:15:54;7.60;;;6.60;;
7001;SDS011;3541;53.230;10.518;2022-09-13T05:18:21;10.10;;;6.40;;
7001;SDS011;3541;53.230;10.518;2022-09-13T05:20:52;10.07;;;6.97;;
7001;SDS011;3541;53.230;10.518;2022-09-13T05:23:20;8.60;;;7.05;;
7001;SDS011;3541;53.230;10.518;2022-09-13T05:25:51;8.90;;;7.35;;
7001;SDS011;3541;53.230;10.518;2022-09-13T05:28:19;9.75;;;7.00;;
7001;SDS011;3541;53.230;10.518;2022-09-13T05:30:52;7.65;;;6.72;;
7001;SDS011;3541;53.230;10.518;2022-09-13T05:33:21;10.18;;;7.15;;
7001;SDS011;3541;53.230;10.518;2022-09-13T05:35:48;9.07;;;6.90;;
7001;SDS011;3541;53.230;10.518;2022-09-13T05:38:15;11.20;;;7.07;;
7001;SDS011;3541;53.230;10.518;2022-09-13T05:40:42;10.10;;;7.43;;
7001;SDS011;3541;53.230;10.518;2022-09-13T05:43:09;8.02;;;6.80;;
7001;SDS011;3541;53.230;10.518;2022-09-13T05:45:36;8.45;;;7.10;;
7001;SDS011;3541;53.230;10.518;2022-09-13T05:48:04;8.07;;;6.82;;
7001;SDS011;3541;53.230;10.518;2022-09-13T05:50:31;8.55;;;7.65;;
7001;SDS011;3541;53.230;10.518;2022-09-13T05:53:01;8.07;;;7.22;;
7001;SDS011;3541;53.230;10.518;2022-09-13T05:55:28;8.13;;;7.18;;
7001;SDS011;3541;53.230;10.518;2022-09-13T05:57:54;10.77;;;8.15;;
7001;SDS011;3541;53.230;10.518;2022-09-13T06:00:22;10.05;;;8.20;;
7001;SDS011;3541;53.230;10.518;2022-09-13T06:02:49;11.38;;;8.13;;
7001;SDS011;3541;53.230;10.518;2022-09-13T06:05:17;9.48;;;7.50;;
7001;SDS011;3541;53.230;10.518;2022-09-13T06:07:43;11.10;;;7.88;;
7001;SDS011;3541;53.230;10.518;2022-09-13T06:10:10;11.23;;;8.13;;
7001;SDS011;3541;53.230;10.518;2022-09-13T06:12:37;9.70;;;8.23;;
7001;SDS011;3541;53.230;10.518;2022-09-13T06:15:04;9.35;;;8.13;;
7001;SDS011;3541;53.230;10.518;2022-09-13T06:17:31;10.57;;;7.90;;
7001;SDS011;3541;53.230;10.518;2022-09-13T06:19:58;11.48;;;8.73;;
7001;SDS011;3541;53.230;10.518;2022-09-13T06:22:25;10.98;;;8.05;;
7001;SDS011;3541;53.230;10.518;2022-09-13T06:24:57;10.27;;;8.15;;
7001;SDS011;3541;53.230;10.518;2022-09-13T06:27:23;12.57;;;8.48;;
7001;SDS011;3541;53.230;10.518;2022-09-13T06:29:50;10.52;;;9.35;;
7001;SDS011;3541;53.230;10.518;2022-09-13T06:32:16;11.63;;;8.75;;
7001;SDS011;3541;53.230;10.518;2022-09-13T06:34:43;12.75;;;8.68;;
7001;SDS011;3541;53.230;10.518;2022-09-13T06:37:10;11.65;;;9.02;;
7001;SDS011;3541;53.230;10.518;2022-09-13T06:39:39;11.40;;;8.95;;
7001;SDS011;3541;53.230;10.518;2022-09-13T06:42:06;10.52;;;9.23;;
7001;SDS011;3541;53.230;10.518;2022-09-13T06:44:32;13.40;;;10.05;;
7001;SDS011;3541;53.230;10.518;2022-09-13T06:46:59;13.27;;;9.82;;
7001;SDS011;3541;53.230;10.518;2022-09-13T06:49:25;15.70;;;9.93;;
7001;SDS011;3541;53.230;10.518;2022-09-13T06:51:53;12.57;;;9.55;;
7001;SDS011;3541;53.230;10.518;2022-09-13T06:54:19;15.15;;;10.57;;
7001;SDS011;3541;53.230;10.518;2022-09-13T06:56:47;12.48;;;10.27;;
7001;SDS011;3541;53.230;10.518;2022-09-13T06:59:14;12.82;;;9.95;;
7001;SDS011;3541;53.230;10.518;2022-09-13T07:01:41;15.73;;;11.18;;
7001;SDS011;3541;53.230;10.518;2022-09-13T07:04:09;13.65;;;10.45;;
7001;SDS011;3541;53.230;10.518;2022-09-13T07:06:38;14.98;;;11.23;;
7001;SDS011;3541;53.230;10.518;2022-09-13T07:09:07;15.95;;;11.02;;
7001;SDS011;3541;53.230;10.518;2022-09-13T07:11:36;13.77;;;11.13;;
7001;SDS011;3541;53.230;10.518;2022-09-13T07:14:06;13.55;;;11.20;;
7001;SDS011;3541;53.230;10.518;2022-09-13T07:16:33;13.90;;;11.23;;
7001;SDS011;3541;53.230;10.518;2022-09-13T07:19:02;14.05;;;10.73;;
7001;SDS011;3541;53.230;10.518;2022-09-13T07:21:30;14.80;;;10.93;;
7001;SDS011;3541;53.230;10.518;2022-09-13T07:23:58;15.27;;;10.90;;
7001;SDS011;3541;53.230;10.518;2022-09-13T07:26:25;13.90;;;11.45;;
7001;SDS011;3541;53.230;10.518;2022-09-13T07:28:53;14.32;;;11.25;;
7001;SDS011;3541;53.230;10.518;2022-09-13T07:31:23;14.13;;;11.68;;
7001;SDS011;3541;53.230;10.518;2022-09-13T07:33:52;13.45;;;11.10;;
7001;SDS011;3541;53.230;10.518;2022-09-13T07:36:20;12.73;;;10.55;;
7001;SDS011;3541;53.230;10.518;2022-09-13T07:38:47;14.38;;;10.93;;
7001;SDS011;3541;53.230;10.518;2022-09-13T07:41:14;14.23;;;11.27;;
7001;SDS011;3541;53.230;10.518;2022-09-13T07:43:42;13.00;;;10.68;;
7001;SDS011;3541;53.230;10.518;2022-09-13T07:46:10;17.80;;;11.18;;
7001;SDS011;3541;53.230;10.518;2022-09-13T07:48:39;16.38;;;12.70;;
7001;SDS011;3541;53.230;10.518;2022-09-13T07:51:08;17.40;;;11.98;;
7001;SDS011;3541;53.230;10.518;2022-09-13T07:53:36;15.93;;;12.20;;
7001;SDS011;3541;53.230;10.518;2022-09-13T07:56:04;17.23;;;12.95;;
7001;SDS011;3541;53.230;10.518;2022-09-13T07:58:33;16.77;;;12.57;;
7001;SDS011;3541;53.230;10.518;2022-09-13T08:01:03;18.40;;;12.45;;
7001;SDS011;3541;53.230;10.518;2022-09-13T08:03:31;18.05;;;12.93;;
7001;SDS011;3541;53.230;10.518;2022-09-13T08:06:00;18.92;;;13.18;;
7001;SDS011;3541;53.230;10.518;2022-09-13T08:08:27;17.05;;;12.13;;
7001;SDS011;3541;53.230;10.518;2022-09-13T08:10:54;17.15;;;13.48;;
7001;SDS011;3541;53.230;10.518;2022-09-13T08:13:21;17.50;;;12.70;;
7001;SDS011;3541;53.230;10.518;2022-09-13T08:15:48;21.25;;;14.10;;
7001;SDS011;3541;53.230;10.518;2022-09-13T08:18:15;17.92;;;12.40;;
7001;SDS011;3541;53.230;10.518;2022-09-13T08:20:42;17.70;;;13.30;;
7001;SDS011;3541;53.230;10.518;2022-09-13T08:23:10;18.77;;;12.88;;
7001;SDS011;3541;53.230;10.518;2022-09-13T08:25:38;16.75;;;12.48;;
7001;SDS011;3541;53.230;10.518;2022-09-13T08:28:05;18.25;;;13.07;;
7001;SDS011;3541;53.230;10.518;2022-09-13T08:30:32;17.73;;;12.80;;
7001;SDS011;3541;53.230;10.518;2022-09-13T08:33:01;19.17;;;13.35;;
7001;SDS011;3541;53.230;10.518;2022-09-13T08:35:28;19.88;;;13.05;;
7001;SDS011;3541;53.230;10.518;2022-09-13T08:37:54;16.40;;;12.25;;
7001;SDS011;3541;53.230;10.518;2022-09-13T08:40:23;17.08;;;12.25;;
7001;SDS011;3541;53.230;10.518;2022-09-13T08:42:53;16.73;;;11.88;;
7001;SDS011;3541;53.230;10.518;2022-09-13T08:45:25;17.08;;;12.95;;
7001;SDS011;3541;53.230;10.518;2022-09-13T08:47:53;16.73;;;12.65;;
7001;SDS011;3541;53.230;10.518;2022-09-13T08:50:25;15.30;;;12.02;;
7001;SDS011;3541;53.230;10.518;2022-09-13T08:52:56;15.50;;;12.02;;
7001;SDS011;3541;53.230;10.518;2022-09-13T08:55:32;16.40;;;11.60;;
7001;SDS011;3541;53.230;10.518;2022-09-13T08:58:07;16.10;;;11.43;;
7001;SDS011;3541;53.230;10.518;2022-09-13T09:00:50;15.43;;;10.90;;
7001;SDS011;3541;53.230;10.518;2022-09-13T09:03:25;15.25;;;10.68;;
7001;SDS011;3541;53.230;10.518;2022-09-13T09:06:02;14.20;;;10.57;;
7001;SDS011;3541;53.230;10.518;2022-09-13T09:08:36;13.02;;;10.80;;
7001;SDS011;3541;53.230;10.518;2022-09-13T09:11:09;14.20;;;10.52;;
7001;SDS011;3541;53.230;10.518;2022-09-13T09:13:41;13.18;;;10.07;;
7001;SDS011;3541;53.230;10.518;2022-09-13T09:16:16;13.50;;;10.05;;
7001;SDS011;3541;53.230;10.518;2022-09-13T09:18:53;13.38;;;9.73;;
7001;SDS011;3541;53.230;10.518;2022-09-13T09:21:24;11.98;;;8.73;;
7001;SDS011;3541;53.230;10.518;2022-09-13T09:23:51;12.85;;;8.80;;
7001;SDS011;3541;53.230;10.518;2022-09-13T09:26:21;11.75;;;9.13;;
7001;SDS011;3541;53.230;10.518;2022-09-13T09:28:52;10.57;;;8.27;;
7001;SDS011;3541;53.230;10.518;2022-09-13T09:31:22;9.50;;;7.82;;
7001;SDS011;3541;53.230;10.518;2022-09-13T09:33:59;11.73;;;8.45;;
7001;SDS011;3541;53.230;10.518;2022-09-13T09:36:38;11.90;;;7.93;;
7001;SDS011;3541;53.230;10.518;2022-09-13T09:39:09;11.20;;;8.25;;
7001;SDS011;3541;53.230;10.518;2022-09-13T09:41:39;9.73;;;8.50;;
7001;SDS011;3541;53.230;10.518;2022-09-13T09:44:11;11.95;;;8.52;;
7001;SDS011;3541;53.230;10.518;2022-09-13T09:46:42;9.65;;;7.75;;
7001;SDS011;3541;53.230;10.518;2022-09-13T09:49:15;9.95;;;8.13;;
7001;SDS011;3541;53.230;10.518;2022-09-13T09:52:02;11.00;;;7.78;;
7001;SDS011;3541;53.230;10.518;2022-09-13T09:54:33;10.32;;;7.53;;
7001;SDS011;3541;53.230;10.518;2022-09-13T09:57:01;10.55;;;7.45;;
7001;SDS011;3541;53.230;10.518;2022-09-13T09:59:29;12.75;;;7.38;;
7001;SDS011;3541;53.230;10.518;2022-09-13T10:01:58;10.15;;;6.68;;
7001;SDS011;3541;53.230;10.518;2022-09-13T10:04:28;9.57;;;6.75;;
7001;SDS011;3541;53.230;10.518;2022-09-13T10:07:07;7.85;;;6.07;;
7001;SDS011;3541;53.230;10.518;2022-09-13T10:09:47;7.97;;;5.70;;
7001;SDS011;3541;53.230;10.518;2022-09-13T10:12:26;7.80;;;5.32;;
7001;SDS011;3541;53.230;10.518;2022-09-13T10:14:55;7.00;;;4.90;;
7001;SDS011;3541;53.230;10.518;2022-09-13T10:17:39;7.88;;;4.28;;
7001;SDS011;3541;53.230;10.518;2022-09-13T10:20:19;7.68;;;3.88;;
7001;SDS011;3541;53.230;10.518;2022-09-13T10:25:36;5.97;;;3.53;;
7001;SDS011;3541;53.230;10.518;2022-09-13T10:28:05;6.80;;;3.17;;
7001;SDS011;3541;53.230;10.518;2022-09-13T10:30:39;5.50;;;3.08;;
7001;SDS011;3541;53.230;10.518;2022-09-13T10:33:12;5.13;;;2.97;;
7001;SDS011;3541;53.230;10.518;2022-09-13T10:35:51;6.57;;;3.30;;
7001;SDS011;3541;53.230;10.518;2022-09-13T10:38:22;4.95;;;2.78;;
7001;SDS011;3541;53.230;10.518;2022-09-13T10:40:53;6.38;;;3.03;;
7001;SDS011;3541;53.230;10.518;2022-09-13T10:43:21;6.38;;;2.40;;
7001;SDS011;3541;53.230;10.518;2022-09-13T10:45:49;5.10;;;2.17;;
7001;SDS011;3541;53.230;10.518;2022-09-13T10:48:17;7.10;;;2.20;;
7001;SDS011;3541;53.230;10.518;2022-09-13T10:50:59;6.30;;;2.60;;
7001;SDS011;3541;53.230;10.518;2022-09-13T10:53:37;4.90;;;2.00;;
7001;SDS011;3541;53.230;10.518;2022-09-13T10:56:07;4.72;;;1.75;;
7001;SDS011;3541;53.230;10.518;2022-09-13T10:58:46;4.13;;;2.00;;
7001;SDS011;3541;53.230;10.518;2022-09-13T11:01:31;4.88;;;2.00;;
7001;SDS011;3541;53.230;10.518;2022-09-13T11:04:19;4.00;;;2.03;;
7001;SDS011;3541;53.230;10.518;2022-09-13T11:07:07;5.13;;;2.08;;
7001;SDS011;3541;53.230;10.518;2022-09-13T11:09:44;4.97;;;1.92;;
7001;SDS011;3541;53.230;10.518;2022-09-13T11:12:22;4.75;;;1.77;;
7001;SDS011;3541;53.230;10.518;2022-09-13T11:15:00;4.35;;;1.40;;
7001;SDS011;3541;53.230;10.518;2022-09-13T11:17:38;5.57;;;1.88;;
7001;SDS011;3541;53.230;10.518;2022-09-13T11:20:17;5.22;;;1.75;;
7001;SDS011;3541;53.230;10.518;2022-09-13T11:22:58;5.38;;;1.90;;
7001;SDS011;3541;53.230;10.518;2022-09-13T11:25:46;3.28;;;1.73;;
7001;SDS011;3541;53.230;10.518;2022-09-13T11:28:25;4.10;;;1.95;;
7001;SDS011;3541;53.230;10.518;2022-09-13T11:31:06;4.72;;;1.63;;
7001;SDS011;3541;53.230;10.518;2022-09-13T11:33:48;4.10;;;1.92;;
7001;SDS011;3541;53.230;10.518;2022-09-13T11:36:38;4.55;;;1.80;;
7001;SDS011;3541;53.230;10.518;2022-09-13T11:39:18;5.05;;;1.40;;
7001;SDS011;3541;53.230;10.518;2022-09-13T11:41:54;4.13;;;1.52;;
7001;SDS011;3541;53.230;10.518;2022-09-13T11:44:37;4.18;;;1.50;;
7001;SDS011;3541;53.230;10.518;2022-09-13T11:47:19;4.95;;;1.55;;
7001;SDS011;3541;53.230;10.518;2022-09-13T11:49:59;2.25;;;1.30;;
7001;SDS011;3541;53.230;10.518;2022-09-13T11:52:41;2.30;;;1.40;;
7001;SDS011;3541;53.230;10.518;2022-09-13T11:55:15;2.70;;;1.25;;
7001;SDS011;3541;53.230;10.518;2022-09-13T11:57:46;3.15;;;1.65;;
7001;SDS011;3541;53.230;10.518;2022-09-13T12:00:19;4.85;;;1.48;;
7001;SDS011;3541;53.230;10.518;2022-09-13T12:02:50;3.50;;;1.50;;
7001;SDS011;3541;53.230;10.518;2022-09-13T12:05:25;3.75;;;1.15;;
7001;SDS011;3541;53.230;10.518;2022-09-13T12:07:55;2.88;;;1.13;;
7001;SDS011;3541;53.230;10.518;2022-09-13T12:10:27;6.43;;;1.50;;
7001;SDS011;3541;53.230;10.518;2022-09-13T12:12:57;4.05;;;1.38;;
7001;SDS011;3541;53.230;10.518;2022-09-13T12:15:28;2.60;;;1.20;;
7001;SDS011;3541;53.230;10.518;2022-09-13T12:18:02;3.03;;;1.50;;
7001;SDS011;3541;53.230;10.518;2022-09-13T12:20:32;4.75;;;1.15;;
7001;SDS011;3541;53.230;10.518;2022-09-13T12:23:02;5.03;;;1.80;;
7001;SDS011;3541;53.230;10.518;2022-09-13T12:25:34;3.80;;;1.30;;
7001;SDS011;3541;53.230;10.518;2022-09-13T12:28:06;4.13;;;1.25;;
7001;SDS011;3541;53.230;10.518;2022-09-13T12:30:43;1.98;;;1.00;;
7001;SDS011;3541;53.230;10.518;2022-09-13T12:33:15;2.03;;;1.08;;
7001;SDS011;3541;53.230;10.518;2022-09-13T12:35:45;3.83;;;1.48;;
7001;SDS011;3541;53.230;10.518;2022-09-13T12:38:22;2.85;;;1.20;;
7001;SDS011;3541;53.230;10.518;2022-09-13T12:41:22;1.33;;;0.82;;
7001;SDS011;3541;53.230;10.518;2022-09-13T12:44:16;6.40;;;2.05;;
7001;SDS011;3541;53.230;10.518;2022-09-13T12:46:58;3.90;;;1.42;;
7001;SDS011;3541;53.230;10.518;2022-09-13T12:49:45;4.03;;;1.33;;
7001;SDS011;3541;53.230;10.518;2022-09-13T12:52:29;2.45;;;1.30;;
7001;SDS011;3541;53.230;10.518;2022-09-13T12:58:14;4.50;;;1.25;;
7001;SDS011;3541;53.230;10.518;2022-09-13T13:00:59;3.80;;;1.45;;
7001;SDS011;3541;53.230;10.518;2022-09-13T13:03:34;4.65;;;1.38;;
7001;SDS011;3541;53.230;10.518;2022-09-13T13:06:12;2.95;;;1.20;;
7001;SDS011;3541;53.230;10.518;2022-09-13T13:08:48;2.65;;;1.10;;
7001;SDS011;3541;53.230;10.518;2022-09-13T13:11:16;4.30;;;1.45;;
7001;SDS011;3541;53.230;10.518;2022-09-13T13:13:52;4.03;;;1.30;;
7001;SDS011;3541;53.230;10.518;2022-09-13T13:16:22;3.28;;;1.90;;
7001;SDS011;3541;53.230;10.518;2022-09-13T13:18:51;4.50;;;2.28;;
7001;SDS011;3541;53.230;10.518;2022-09-13T13:21:24;2.97;;;1.42;;
7001;SDS011;3541;53.230;10.518;2022-09-13T13:33:21;6.47;;;1.45;;
7001;SDS011;3541;53.230;10.518;2022-09-13T13:35:51;2.83;;;1.58;;
7001;SDS011;3541;53.230;10.518;2022-09-13T13:41:07;4.20;;;1.77;;
7001;SDS011;3541;53.230;10.518;2022-09-13T13:50:18;3.50;;;1.35;;
7001;SDS011;3541;53.230;10.518;2022-09-13T13:52:50;2.08;;;1.30;;
7001;SDS011;3541;53.230;10.518;2022-09-13T13:55:27;2.70;;;1.17;;
7001;SDS011;3541;53.230;10.518;2022-09-13T13:58:00;4.03;;;1.60;;
7001;SDS011;3541;53.230;10.518;2022-09-13T14:00:30;4.25;;;1.60;;
7001;SDS011;3541;53.230;10.518;2022-09-13T14:03:04;3.47;;;1.30;;
7001;SDS011;3541;53.230;10.518;2022-09-13T14:05:40;3.83;;;1.35;;
7001;SDS011;3541;53.230;10.518;2022-09-13T14:08:19;3.20;;;1.42;;
7001;SDS011;3541;53.230;10.518;2022-09-13T14:10:57;4.75;;;1.50;;
7001;SDS011;3541;53.230;10.518;2022-09-13T14:13:38;4.40;;;1.35;;
7001;SDS011;3541;53.230;10.518;2022-09-13T14:16:12;2.13;;;1.17;;
7001;SDS011;3541;53.230;10.518;2022-09-13T14:18:54;3.67;;;1.30;;
7001;SDS011;3541;53.230;10.518;2022-09-13T14:21:31;3.80;;;1.33;;
7001;SDS011;3541;53.230;10.518;2022-09-13T14:24:08;4.70;;;1.50;;
7001;SDS011;3541;53.230;10.518;2022-09-13T14:26:44;3.60;;;1.60;;
7001;SDS011;3541;53.230;10.518;2022-09-13T14:29:14;3.15;;;1.27;;
7001;SDS011;3541;53.230;10.518;2022-09-13T14:31:46;5.45;;;1.52;;
7001;SDS011;3541;53.230;10.518;2022-09-13T14:34:22;4.28;;;1.70;;
7001;SDS011;3541;53.230;10.518;2022-09-13T14:36:50;3.85;;;1.33;;
7001;SDS011;3541;53.230;10.518;2022-09-13T14:39:18;3.53;;;1.23;;
7001;SDS011;3541;53.230;10.518;2022-09-13T14:41:45;6.68;;;1.83;;
7001;SDS011;3541;53.230;10.518;2022-09-13T14:44:17;3.65;;;1.50;;
7001;SDS011;3541;53.230;10.518;2022-09-13T14:46:47;3.60;;;1.77;;
7001;SDS011;3541;53.230;10.518;2022-09-13T14:49:20;4.38;;;1.98;;
7001;SDS011;3541;53.230;10.518;2022-09-13T14:51:50;4.35;;;1.45;;
7001;SDS011;3541;53.230;10.518;2022-09-13T14:54:27;4.22;;;1.52;;
7001;SDS011;3541;53.230;10.518;2022-09-13T14:56:59;3.78;;;1.50;;
7001;SDS011;3541;53.230;10.518;2022-09-13T14:59:30;8.70;;;1.42;;
7001;SDS011;3541;53.230;10.518;2022-09-13T15:02:03;2.05;;;1.33;;
7001;SDS011;3541;53.230;10.518;2022-09-13T15:04:31;3.00;;;1.30;;
7001;SDS011;3541;53.230;10.518;2022-09-13T15:07:05;2.97;;;1.40;;
7001;SDS011;3541;53.230;10.518;2022-09-13T15:09:33;5.15;;;1.80;;
7001;SDS011;3541;53.230;10.518;2022-09-13T15:12:02;4.93;;;1.50;;
7001;SDS011;3541;53.230;10.518;2022-09-13T15:14:31;3.22;;;1.40;;
7001;SDS011;3541;53.230;10.518;2022-09-13T15:17:05;3.15;;;1.17;;
7001;SDS011;3541;53.230;10.518;2022-09-13T15:19:37;5.88;;;1.33;;
7001;SDS011;3541;53.230;10.518;2022-09-13T15:24:51;4.20;;;1.58;;
7001;SDS011;3541;53.230;10.518;2022-09-13T15:27:26;4.15;;;2.20;;
7001;SDS011;3541;53.230;10.518;2022-09-13T15:29:56;6.22;;;3.85;;
7001;SDS011;3541;53.230;10.518;2022-09-13T15:32:31;3.10;;;2.13;;
7001;SDS011;3541;53.230;10.518;2022-09-13T15:34:59;5.00;;;1.58;;
7001;SDS011;3541;53.230;10.518;2022-09-13T15:37:28;3.78;;;1.70;;
7001;SDS011;3541;53.230;10.518;2022-09-13T15:40:13;3.95;;;1.50;;
7001;SDS011;3541;53.230;10.518;2022-09-13T15:42:44;3.80;;;1.35;;
7001;SDS011;3541;53.230;10.518;2022-09-13T15:45:14;6.70;;;1.83;;
7001;SDS011;3541;53.230;10.518;2022-09-13T15:47:43;1.90;;;1.35;;
7001;SDS011;3541;53.230;10.518;2022-09-13T15:50:14;4.75;;;1.40;;
7001;SDS011;3541;53.230;10.518;2022-09-13T15:52:45;3.38;;;1.83;;
7001;SDS011;3541;53.230;10.518;2022-09-13T15:55:11;5.75;;;1.48;;
7001;SDS011;3541;53.230;10.518;2022-09-13T15:57:38;8.63;;;2.05;;